createdAt,value
2019-03-05T00:01:35.560Z,6.37
2019-03-05T00:04:06.109Z,6.41
2019-03-05T00:06:35.928Z,6.44
2019-03-05T00:09:08.365Z,6.38
2019-03-05T00:11:38.307Z,6.40
2019-03-05T00:14:08.101Z,6.32
2019-03-05T00:16:37.865Z,6.23
2019-03-05T00:19:07.706Z,6.27
2019-03-05T00:21:37.514Z,6.29
2019-03-05T00:24:43.325Z,6.34
2019-03-05T00:27:13.117Z,6.32
2019-03-05T00:29:57.519Z,6.27
2019-03-05T00:32:27.321Z,6.25
2019-03-05T00:35:19.537Z,6.17
2019-03-05T00:38:01.023Z,6.04
2019-03-05T00:40:39.403Z,5.98
2019-03-05T00:43:15.116Z,5.98
2019-03-05T00:45:47.998Z,6.05
2019-03-05T00:48:26.687Z,6.04
2019-03-05T00:51:25.064Z,6.06
2019-03-05T00:54:18.468Z,5.99
2019-03-05T00:56:51.303Z,5.86
2019-03-05T00:59:32.948Z,5.85
2019-03-05T01:02:20.640Z,5.78
2019-03-05T01:05:11.767Z,5.74
2019-03-05T01:07:41.483Z,5.73
2019-03-05T01:10:13.052Z,5.73
2019-03-05T01:12:42.915Z,5.69
2019-03-05T01:15:12.682Z,5.64
2019-03-05T01:17:42.499Z,5.60
2019-03-05T01:20:12.889Z,5.56
2019-03-05T01:22:42.839Z,5.50
2019-03-05T01:25:30.257Z,5.43
2019-03-05T01:28:00.067Z,5.35
2019-03-05T01:30:53.526Z,5.57
2019-03-05T01:33:24.559Z,5.48
2019-03-05T01:36:04.795Z,5.44
2019-03-05T01:38:36.124Z,5.40
2019-03-05T01:41:07.366Z,5.37
2019-03-05T01:43:37.298Z,5.41
2019-03-05T01:46:07.083Z,5.41
2019-03-05T01:48:37.010Z,5.40
2019-03-05T01:51:07.236Z,5.42
2019-03-05T01:53:38.036Z,5.45
2019-03-05T01:56:07.814Z,5.51
2019-03-05T01:58:37.987Z,5.57
2019-03-05T02:01:07.766Z,5.56
2019-03-05T02:03:37.833Z,5.52
2019-03-05T02:06:07.792Z,5.49
2019-03-05T02:08:37.881Z,5.44
2019-03-05T02:11:08.581Z,5.33
2019-03-05T02:13:38.379Z,5.28
2019-03-05T02:16:08.175Z,5.27
2019-03-05T02:18:37.977Z,5.32
2019-03-05T02:21:07.782Z,5.30
2019-03-05T02:23:49.717Z,5.28
2019-03-05T02:26:49.998Z,5.27
2019-03-05T02:29:35.020Z,5.18
2019-03-05T02:32:31.956Z,5.06
2019-03-05T02:35:13.625Z,4.99
2019-03-05T02:38:06.129Z,4.97
2019-03-05T02:40:42.028Z,4.97
2019-03-05T02:43:14.774Z,4.89
2019-03-05T02:45:56.643Z,4.77
2019-03-05T02:48:48.684Z,4.59
2019-03-05T02:51:34.055Z,4.54
2019-03-05T02:54:40.376Z,4.55
2019-03-05T02:57:09.327Z,4.63
2019-03-05T02:59:39.087Z,4.66
2019-03-05T03:02:28.273Z,4.69
2019-03-05T03:05:05.625Z,4.71
2019-03-05T03:07:35.445Z,4.81
2019-03-05T03:10:19.626Z,4.77
2019-03-05T03:12:49.495Z,4.80
2019-03-05T03:15:19.616Z,4.70
2019-03-05T03:17:49.499Z,4.59
2019-03-05T03:20:19.986Z,4.52
2019-03-05T03:22:50.044Z,4.47
2019-03-05T03:25:19.956Z,4.44
2019-03-05T03:27:49.746Z,4.44
2019-03-05T03:30:21.119Z,4.46
2019-03-05T03:32:51.763Z,4.49
2019-03-05T03:35:21.718Z,4.52
2019-03-05T03:37:51.517Z,4.51
2019-03-05T03:40:22.339Z,4.48
2019-03-05T03:42:52.135Z,4.40
2019-03-05T03:45:22.297Z,4.46
2019-03-05T03:47:52.109Z,4.53
2019-03-05T03:50:21.948Z,4.47
2019-03-05T03:52:51.734Z,4.45
2019-03-05T03:55:21.528Z,4.40
2019-03-05T03:57:51.383Z,4.38
2019-03-05T04:00:22.057Z,4.35
2019-03-05T04:02:51.843Z,4.27
2019-03-05T04:05:21.568Z,4.22
2019-03-05T04:07:51.377Z,4.21
2019-03-05T04:10:21.102Z,4.09
2019-03-05T04:12:50.719Z,3.98
2019-03-05T04:15:20.492Z,3.99
2019-03-05T04:17:50.226Z,3.94
2019-03-05T04:20:28.624Z,3.84
2019-03-05T04:22:58.445Z,3.86
2019-03-05T04:25:28.120Z,3.87
2019-03-05T04:27:57.899Z,3.59
2019-03-05T04:30:27.666Z,3.51
2019-03-05T04:32:57.451Z,3.57
2019-03-05T04:35:27.248Z,3.50
2019-03-05T04:37:56.985Z,3.54
2019-03-05T04:40:26.800Z,3.41
2019-03-05T04:42:56.582Z,3.47
2019-03-05T04:45:44.835Z,3.64
2019-03-05T04:48:14.992Z,3.51
2019-03-05T04:50:58.938Z,3.62
2019-03-05T04:53:28.687Z,3.58
2019-03-05T04:55:58.479Z,3.65
2019-03-05T04:58:28.257Z,3.69
2019-03-05T05:00:58.019Z,3.72
2019-03-05T05:03:27.766Z,3.56
2019-03-05T05:05:57.662Z,3.59
2019-03-05T05:08:27.616Z,3.59
2019-03-05T05:10:58.229Z,3.52
2019-03-05T05:13:28.166Z,3.45
2019-03-05T05:15:57.975Z,3.57
2019-03-05T05:18:27.712Z,3.60
2019-03-05T05:20:57.752Z,3.65
2019-03-05T05:23:27.482Z,3.67
2019-03-05T05:25:57.244Z,3.67
2019-03-05T05:28:27.023Z,3.61
2019-03-05T05:30:57.328Z,3.54
2019-03-05T05:33:27.099Z,3.41
2019-03-05T05:35:56.917Z,3.36
2019-03-05T05:38:26.685Z,3.33
2019-03-05T05:40:56.440Z,3.19
2019-03-05T05:43:31.268Z,3.25
2019-03-05T05:46:01.048Z,5.33
2019-03-05T05:48:30.770Z,5.62
2019-03-05T05:51:00.517Z,5.54
2019-03-05T05:53:30.352Z,5.70
2019-03-05T05:56:00.107Z,5.94
2019-03-05T05:58:29.884Z,6.12
2019-03-05T06:01:01.276Z,6.11
2019-03-05T06:03:31.245Z,5.52
2019-03-05T06:06:01.197Z,4.83
2019-03-05T06:08:30.876Z,4.40
2019-03-05T06:11:00.694Z,4.13
2019-03-05T06:13:30.479Z,3.92
2019-03-05T06:16:00.281Z,3.71
2019-03-05T06:18:29.944Z,3.62
2019-03-05T06:21:00.099Z,3.42
2019-03-05T06:23:29.804Z,3.50
2019-03-05T06:25:59.453Z,3.69
2019-03-05T06:28:29.205Z,3.95
2019-03-05T06:30:59.105Z,4.28
2019-03-05T06:33:28.927Z,4.87
2019-03-05T06:35:59.140Z,5.35
2019-03-05T06:38:28.905Z,5.58
2019-03-05T06:40:58.793Z,5.89
2019-03-05T06:43:28.482Z,6.09
2019-03-05T06:46:01.436Z,6.15
2019-03-05T06:48:31.172Z,6.14
2019-03-05T06:51:00.936Z,6.19
2019-03-05T06:53:32.825Z,6.22
2019-03-05T06:56:02.615Z,6.26
2019-03-05T06:58:32.437Z,6.40
2019-03-05T07:01:02.357Z,6.38
2019-03-05T07:03:32.119Z,6.55
2019-03-05T07:06:38.678Z,6.36
2019-03-05T07:09:20.631Z,6.49
2019-03-05T07:12:10.143Z,6.62
2019-03-05T07:14:58.193Z,6.72
2019-03-05T07:17:36.777Z,7.07
2019-03-05T07:20:22.524Z,7.26
2019-03-05T07:22:55.378Z,7.39
2019-03-05T07:25:26.026Z,7.35
2019-03-05T07:27:55.803Z,7.88
2019-03-05T07:30:25.562Z,7.82
2019-03-05T07:32:55.876Z,7.86
2019-03-05T07:35:26.013Z,7.73
2019-03-05T07:37:55.995Z,7.66
2019-03-05T07:40:25.819Z,7.57
2019-03-05T07:42:58.510Z,7.58
2019-03-05T07:45:28.351Z,5.95
2019-03-05T07:48:00.186Z,7.60
2019-03-05T07:50:30.850Z,7.64
2019-03-05T07:53:00.720Z,7.69
2019-03-05T07:55:30.953Z,7.78
2019-03-05T07:58:00.749Z,7.90
2019-03-05T08:00:30.541Z,8.03
2019-03-05T08:03:00.324Z,8.15
2019-03-05T08:05:32.057Z,8.24
2019-03-05T08:08:38.360Z,8.38
2019-03-05T08:11:08.085Z,8.62
2019-03-05T08:13:40.868Z,8.61
2019-03-05T08:16:12.351Z,8.67
2019-03-05T08:18:42.138Z,8.82
2019-03-05T08:21:12.245Z,8.99
2019-03-05T08:23:42.136Z,9.22
2019-03-05T08:26:12.812Z,9.33
2019-03-05T08:28:42.573Z,9.32
2019-03-05T08:31:12.763Z,9.44
2019-03-05T08:33:42.546Z,9.63
2019-03-05T08:36:12.586Z,9.74
2019-03-05T08:38:42.401Z,9.53
2019-03-05T08:41:14.596Z,9.41
2019-03-05T08:43:46.097Z,9.14
2019-03-05T08:46:15.853Z,8.91
2019-03-05T08:48:46.113Z,8.59
2019-03-05T08:51:16.978Z,8.67
2019-03-05T08:53:49.717Z,8.71
2019-03-05T08:56:19.767Z,8.73
2019-03-05T08:58:49.939Z,8.88
2019-03-05T09:01:19.904Z,8.83
2019-03-05T09:03:52.885Z,8.90
2019-03-05T09:06:23.049Z,9.22
2019-03-05T09:08:52.873Z,9.21
2019-03-05T09:11:24.882Z,9.35
2019-03-05T09:13:55.239Z,9.69
2019-03-05T09:16:27.946Z,10.04
2019-03-05T09:18:59.807Z,10.43
2019-03-05T09:21:33.112Z,10.65
2019-03-05T09:24:02.912Z,10.97
2019-03-05T09:26:32.684Z,11.23
2019-03-05T09:29:02.601Z,11.33
2019-03-05T09:31:33.271Z,11.61
2019-03-05T09:34:03.179Z,11.88
2019-03-05T09:36:33.081Z,11.96
2019-03-05T09:39:03.279Z,12.10
2019-03-05T09:41:33.241Z,12.28
2019-03-05T09:44:03.123Z,12.27
2019-03-05T09:46:33.243Z,12.35
2019-03-05T09:49:03.069Z,12.27
2019-03-05T09:51:33.158Z,12.21
2019-03-05T09:54:02.951Z,12.40
2019-03-05T09:56:32.745Z,12.50
2019-03-05T09:59:02.576Z,12.61
2019-03-05T10:01:32.494Z,12.75
2019-03-05T10:04:02.805Z,13.07
2019-03-05T10:06:32.686Z,13.27
2019-03-05T10:09:02.474Z,13.30
2019-03-05T10:11:32.267Z,13.39
2019-03-05T10:14:04.706Z,13.36
2019-03-05T10:16:34.566Z,13.37
2019-03-05T10:19:04.498Z,13.25
2019-03-05T10:21:45.551Z,13.24
2019-03-05T10:24:10.539Z,13.31
2019-03-05T10:26:38.375Z,13.32
2019-03-05T10:29:08.218Z,13.44
2019-03-05T10:31:38.062Z,13.43
2019-03-05T10:34:07.920Z,13.50
2019-03-05T10:36:37.688Z,13.49
2019-03-05T10:39:16.206Z,13.58
2019-03-05T10:41:46.605Z,13.55
2019-03-05T10:44:16.511Z,13.54
2019-03-05T10:46:46.716Z,13.55
2019-03-05T10:49:16.724Z,13.57
2019-03-05T10:51:46.594Z,13.62
2019-03-05T10:54:18.220Z,13.66
2019-03-05T10:56:48.056Z,13.64
2019-03-05T10:59:17.695Z,13.64
2019-03-05T11:01:49.008Z,13.60
2019-03-05T11:04:18.796Z,13.65
2019-03-05T11:06:48.556Z,13.73
2019-03-05T11:09:19.914Z,13.85
2019-03-05T11:11:50.478Z,13.90
2019-03-05T11:14:20.274Z,13.81
2019-03-05T11:16:50.151Z,13.81
2019-03-05T11:19:19.980Z,13.83
2019-03-05T11:21:49.780Z,13.91
2019-03-05T11:24:19.545Z,14.02
2019-03-05T11:26:49.241Z,14.10
2019-03-05T11:29:22.385Z,14.20
2019-03-05T11:31:52.467Z,14.26
2019-03-05T11:34:25.153Z,14.30
2019-03-05T11:36:54.957Z,14.28
2019-03-05T11:39:28.153Z,14.22
2019-03-05T11:41:57.931Z,14.29
2019-03-05T11:44:27.706Z,14.38
2019-03-05T11:47:00.686Z,14.33
2019-03-05T11:49:30.496Z,14.36
2019-03-05T11:52:02.623Z,14.34
2019-03-05T11:54:32.417Z,14.32
2019-03-05T11:57:03.737Z,14.28
2019-03-05T11:59:33.981Z,14.34
2019-03-05T12:02:06.122Z,14.40
2019-03-05T12:04:36.944Z,14.50
2019-03-05T12:07:08.803Z,14.44
2019-03-05T12:09:41.052Z,14.42
2019-03-05T12:12:12.369Z,14.44
2019-03-05T12:14:42.463Z,14.35
2019-03-05T12:17:12.910Z,14.04
2019-03-05T12:19:42.846Z,14.06
2019-03-05T12:22:12.617Z,13.92
2019-03-05T12:24:45.879Z,13.89
2019-03-05T12:27:15.895Z,13.90
2019-03-05T12:29:45.599Z,13.85
2019-03-05T12:32:15.484Z,13.84
2019-03-05T12:34:48.070Z,13.79
2019-03-05T12:37:18.566Z,13.73
2019-03-05T12:39:48.358Z,13.71
2019-03-05T12:42:18.172Z,13.73
2019-03-05T12:44:49.582Z,13.68
2019-03-05T12:47:21.218Z,13.62
2019-03-05T12:49:51.414Z,13.56
2019-03-05T12:52:21.185Z,13.47
2019-03-05T12:54:50.941Z,13.41
2019-03-05T12:57:20.674Z,13.36
2019-03-05T12:59:50.394Z,13.36
2019-03-05T13:02:20.293Z,13.33
2019-03-05T13:04:50.140Z,13.30
2019-03-05T13:07:19.952Z,13.27
2019-03-05T13:09:52.587Z,13.27
2019-03-05T13:12:21.506Z,13.23
2019-03-05T13:14:51.291Z,13.23
2019-03-05T13:17:21.558Z,13.30
2019-03-05T13:19:53.583Z,13.25
2019-03-05T13:22:24.772Z,13.27
2019-03-05T13:24:54.378Z,13.33
2019-03-05T13:27:24.094Z,13.38
2019-03-05T13:29:53.872Z,13.43
2019-03-05T13:32:23.664Z,13.45
2019-03-05T13:34:53.650Z,13.49
2019-03-05T13:37:24.887Z,13.52
2019-03-05T13:39:58.252Z,13.52
2019-03-05T13:42:29.064Z,13.61
2019-03-05T13:44:58.846Z,13.61
2019-03-05T13:47:29.189Z,13.61
2019-03-05T13:50:08.485Z,13.62
2019-03-05T13:52:57.695Z,13.61
2019-03-05T13:55:30.422Z,13.63
2019-03-05T13:58:20.879Z,13.62
2019-03-05T14:00:51.038Z,13.62
2019-03-05T14:03:27.432Z,13.56
2019-03-05T14:06:19.813Z,13.55
2019-03-05T14:09:16.567Z,13.56
2019-03-05T14:11:49.281Z,13.62
2019-03-05T14:14:24.088Z,13.61
2019-03-05T14:17:01.663Z,13.56
2019-03-05T14:19:31.379Z,13.60
2019-03-05T14:22:01.226Z,13.64
2019-03-05T14:24:31.040Z,13.72
2019-03-05T14:27:00.782Z,13.78
2019-03-05T14:29:30.558Z,13.85
2019-03-05T14:32:00.354Z,13.92
2019-03-05T14:34:30.281Z,13.92
2019-03-05T14:37:00.071Z,13.98
2019-03-05T14:39:34.825Z,14.01
2019-03-05T14:42:07.759Z,13.99
2019-03-05T14:44:40.328Z,13.92
2019-03-05T14:47:13.031Z,13.90
2019-03-05T14:49:42.783Z,13.88
2019-03-05T14:52:12.323Z,13.84
2019-03-05T14:54:42.180Z,13.78
2019-03-05T14:57:12.895Z,13.78
2019-03-05T14:59:43.232Z,13.75
2019-03-05T15:02:13.125Z,13.73
2019-03-05T15:04:45.365Z,13.73
2019-03-05T15:07:15.284Z,13.72
2019-03-05T15:09:45.110Z,13.73
2019-03-05T15:12:15.762Z,13.73
2019-03-05T15:14:47.287Z,13.77
2019-03-05T15:17:19.837Z,13.83
2019-03-05T15:19:51.146Z,13.78
2019-03-05T15:22:23.388Z,13.80
2019-03-05T15:24:53.194Z,13.82
2019-03-05T15:27:22.953Z,13.85
2019-03-05T15:29:54.092Z,13.98
2019-03-05T15:32:23.962Z,13.99
2019-03-05T15:34:55.050Z,13.96
2019-03-05T15:37:24.890Z,13.92
2019-03-05T15:39:55.554Z,13.90
2019-03-05T15:42:28.649Z,13.84
2019-03-05T15:44:57.449Z,13.75
2019-03-05T15:47:28.464Z,13.65
2019-03-05T15:49:58.560Z,13.59
2019-03-05T15:52:28.808Z,13.51
2019-03-05T15:54:59.912Z,13.42
2019-03-05T15:57:30.147Z,13.34
2019-03-05T16:00:00.503Z,13.34
2019-03-05T16:02:31.292Z,13.38
2019-03-05T16:05:11.300Z,13.44
2019-03-05T16:07:32.626Z,13.48
2019-03-05T16:10:02.883Z,13.43
2019-03-05T16:12:33.034Z,13.36
2019-03-05T16:15:05.175Z,13.23
2019-03-05T16:17:35.252Z,13.14
2019-03-05T16:20:08.184Z,13.11
2019-03-05T16:22:38.164Z,12.95
2019-03-05T16:25:13.738Z,12.57
2019-03-05T16:27:43.171Z,12.30
2019-03-05T16:30:36.886Z,12.27
2019-03-05T16:33:24.846Z,12.17
2019-03-05T16:36:08.265Z,12.07
2019-03-05T16:38:46.714Z,12.02
2019-03-05T16:41:34.636Z,11.88
2019-03-05T16:44:15.422Z,11.82
2019-03-05T16:47:04.094Z,11.94
2019-03-05T16:49:52.156Z,11.93
2019-03-05T16:52:26.170Z,11.82
2019-03-05T16:55:12.868Z,11.64
2019-03-05T16:57:47.917Z,11.49
2019-03-05T17:00:22.423Z,11.43
2019-03-05T17:03:06.094Z,11.19
2019-03-05T17:05:40.227Z,11.02
2019-03-05T17:08:12.554Z,10.74
2019-03-05T17:10:46.676Z,10.54
2019-03-05T17:13:16.564Z,10.37
2019-03-05T17:15:46.383Z,10.22
2019-03-05T17:18:16.204Z,10.11
2019-03-05T17:20:46.614Z,10.03
2019-03-05T17:23:16.422Z,9.94
2019-03-05T17:25:46.055Z,9.87
2019-03-05T17:28:16.026Z,9.82
2019-03-05T17:30:45.927Z,9.71
2019-03-05T17:33:16.324Z,9.64
2019-03-05T17:35:46.124Z,9.58
2019-03-05T17:38:16.312Z,9.54
2019-03-05T17:40:46.125Z,9.50
2019-03-05T17:43:16.899Z,9.46
2019-03-05T17:45:46.691Z,10.03
2019-03-05T17:48:16.477Z,10.32
2019-03-05T17:50:46.393Z,9.94
2019-03-05T17:53:16.372Z,9.70
2019-03-05T17:55:46.673Z,9.42
2019-03-05T17:58:16.304Z,9.26
2019-03-05T18:00:47.649Z,9.11
2019-03-05T18:03:17.571Z,8.95
2019-03-05T18:05:50.811Z,8.85
2019-03-05T18:08:21.560Z,8.72
2019-03-05T18:10:51.666Z,8.65
2019-03-05T18:13:21.421Z,8.61
2019-03-05T18:15:51.201Z,8.56
2019-03-05T18:18:21.698Z,8.54
2019-03-05T18:20:51.672Z,8.50
2019-03-05T18:23:21.459Z,8.44
2019-03-05T18:25:51.302Z,8.44
2019-03-05T18:28:22.020Z,8.43
2019-03-05T18:30:52.772Z,8.38
2019-03-05T18:33:22.631Z,8.39
2019-03-05T18:35:52.782Z,8.48
2019-03-05T18:38:22.923Z,8.77
2019-03-05T18:40:53.225Z,8.86
2019-03-05T18:43:22.926Z,8.85
2019-03-05T18:45:53.781Z,8.65
2019-03-05T18:48:24.614Z,8.58
2019-03-05T18:50:54.767Z,8.48
2019-03-05T18:53:25.469Z,8.28
2019-03-05T18:55:55.399Z,8.13
2019-03-05T18:58:27.449Z,8.28
2019-03-05T19:00:57.673Z,8.63
2019-03-05T19:03:30.148Z,8.67
2019-03-05T19:06:00.129Z,8.51
2019-03-05T19:08:29.962Z,8.23
2019-03-05T19:11:02.059Z,7.92
2019-03-05T19:13:32.203Z,7.88
2019-03-05T19:16:02.571Z,7.79
2019-03-05T19:18:32.663Z,7.65
2019-03-05T19:21:02.770Z,7.56
2019-03-05T19:23:32.556Z,7.53
2019-03-05T19:26:02.409Z,7.66
2019-03-05T19:28:43.046Z,7.70
2019-03-05T19:31:13.073Z,7.89
2019-03-05T19:33:43.799Z,8.05
2019-03-05T19:36:14.636Z,8.01
2019-03-05T19:38:44.906Z,7.99
2019-03-05T19:41:14.724Z,7.99
2019-03-05T19:43:44.536Z,8.02
2019-03-05T19:46:15.694Z,8.31
2019-03-05T19:48:46.823Z,8.08
2019-03-05T19:51:17.041Z,7.99
2019-03-05T19:53:46.852Z,7.92
2019-03-05T19:56:17.842Z,7.87
2019-03-05T19:58:49.256Z,7.82
2019-03-05T20:01:20.717Z,7.79
2019-03-05T20:03:51.392Z,7.98
2019-03-05T20:06:21.209Z,8.06
2019-03-05T20:08:51.374Z,7.97
2019-03-05T20:11:21.255Z,7.89
2019-03-05T20:13:54.072Z,7.88
2019-03-05T20:16:23.948Z,7.83
2019-03-05T20:18:54.124Z,7.78
2019-03-05T20:21:28.044Z,7.71
2019-03-05T20:23:58.030Z,7.66
2019-03-05T20:26:27.985Z,7.51
2019-03-05T20:28:57.769Z,7.42
2019-03-05T20:31:30.843Z,7.39
2019-03-05T20:34:05.318Z,7.34
2019-03-05T20:36:35.564Z,7.30
2019-03-05T20:39:06.624Z,7.30
2019-03-05T20:41:36.519Z,7.29
2019-03-05T20:44:08.895Z,7.26
2019-03-05T20:46:42.011Z,7.22
2019-03-05T20:49:12.504Z,7.13
2019-03-05T20:51:44.175Z,7.12
2019-03-05T20:54:18.237Z,7.12
2019-03-05T20:56:49.509Z,7.15
2019-03-05T20:59:20.340Z,7.18
2019-03-05T21:01:50.921Z,7.17
2019-03-05T21:04:23.535Z,7.18
2019-03-05T21:06:53.860Z,7.15
2019-03-05T21:09:25.000Z,7.16
2019-03-05T21:11:56.758Z,7.13
2019-03-05T21:14:26.603Z,7.02
2019-03-05T21:16:59.581Z,6.86
2019-03-05T21:19:29.809Z,6.76
2019-03-05T21:22:01.550Z,6.76
2019-03-05T21:24:31.359Z,6.67
2019-03-05T21:27:01.463Z,6.65
2019-03-05T21:29:31.381Z,6.46
2019-03-05T21:32:02.894Z,6.36
2019-03-05T21:34:33.111Z,6.34
2019-03-05T21:37:04.012Z,6.29
2019-03-05T21:39:34.003Z,6.25
2019-03-05T21:42:04.067Z,6.29
2019-03-05T21:44:33.885Z,6.31
2019-03-05T21:47:03.678Z,6.33
2019-03-05T21:49:33.539Z,6.19
2019-03-05T21:52:03.784Z,6.10
2019-03-05T21:54:34.622Z,6.16
2019-03-05T21:57:04.767Z,6.15
2019-03-05T21:59:34.535Z,6.11
2019-03-05T22:02:06.641Z,6.10
2019-03-05T22:04:36.873Z,6.07
2019-03-05T22:07:07.286Z,6.09
2019-03-05T22:09:37.075Z,5.99
2019-03-05T22:12:06.822Z,5.92
2019-03-05T22:14:36.972Z,5.97
2019-03-05T22:17:06.719Z,6.00
2019-03-05T22:19:38.311Z,5.98
2019-03-05T22:22:09.652Z,5.90
2019-03-05T22:24:39.455Z,5.86
2019-03-05T22:27:09.247Z,5.69
2019-03-05T22:29:39.058Z,5.72
2019-03-05T22:32:09.261Z,5.69
2019-03-05T22:34:40.515Z,5.71
2019-03-05T22:37:10.350Z,5.69
2019-03-05T22:39:40.118Z,5.70
2019-03-05T22:42:11.836Z,5.62
2019-03-05T22:44:42.545Z,5.53
2019-03-05T22:47:12.415Z,5.39
2019-03-05T22:49:42.228Z,5.34
2019-03-05T22:52:12.107Z,5.28
2019-03-05T22:54:42.286Z,5.17
2019-03-05T22:57:12.234Z,5.07
2019-03-05T22:59:41.960Z,4.94
2019-03-05T23:02:11.905Z,3.14
2019-03-05T23:04:41.913Z,5.10
2019-03-05T23:07:13.541Z,5.16
2019-03-05T23:09:43.169Z,5.22
2019-03-05T23:12:13.189Z,5.40
2019-03-05T23:14:43.008Z,5.33
2019-03-05T23:17:13.308Z,5.38
2019-03-05T23:19:43.468Z,5.32
2019-03-05T23:22:13.968Z,5.36
2019-03-05T23:24:43.848Z,5.35
2019-03-05T23:27:16.048Z,5.29
2019-03-05T23:29:46.227Z,5.18
2019-03-05T23:32:17.168Z,5.06
2019-03-05T23:34:46.887Z,4.95
2019-03-05T23:37:16.942Z,5.01
2019-03-05T23:39:49.088Z,4.85
2019-03-05T23:42:19.151Z,4.77
2019-03-05T23:44:48.851Z,4.65
2019-03-05T23:47:18.647Z,4.58
2019-03-05T23:49:48.470Z,4.55
2019-03-05T23:52:18.271Z,4.45
2019-03-05T23:54:48.038Z,4.49
2019-03-05T23:57:17.781Z,4.46
2019-03-05T23:59:47.505Z,4.44
